sensor_id;sensor_type;location;lat;lon;timestamp;P1;P2;P0
56360;PMS7003;42611;51.132;13.588;2024-01-11T00:03:01;74.3;58.4;
56360;PMS7003;42611;51.132;13.588;2024-01-11T00:08:01;75.7;58.4;
56360;PMS7003;42611;51.132;13.588;2024-01-11T00:13:01;78.6;60.5;
56360;PMS7003;42611;51.132;13.588;2024-01-11T00:18:03;82.4;62.9;
56360;PMS7003;42611;51.132;13.588;2024-01-11T00:23:01;85.4;64.6;
56360;PMS7003;42611;51.132;13.588;2024-01-11T00:28:01;85.3;63.9;
56360;PMS7003;42611;51.132;13.588;2024-01-11T00:33:02;83.6;63.7;
56360;PMS7003;42611;51.132;13.588;2024-01-11T00:38:01;81.2;61.7;
56360;PMS7003;42611;51.132;13.588;2024-01-11T00:43:01;75.1;57.9;
56360;PMS7003;42611;51.132;13.588;2024-01-11T00:48:01;74.6;58.1;
56360;PMS7003;42611;51.132;13.588;2024-01-11T00:53:01;72.8;58.2;
56360;PMS7003;42611;51.132;13.588;2024-01-11T00:58:01;73.0;57.4;
56360;PMS7003;42611;51.132;13.588;2024-01-11T01:08:01;77.1;61.6;
56360;PMS7003;42611;51.132;13.588;2024-01-11T01:13:02;75.5;59.8;
56360;PMS7003;42611;51.132;13.588;2024-01-11T01:18:02;80.1;62.1;
56360;PMS7003;42611;51.132;13.588;2024-01-11T01:23:01;73.4;58.4;
56360;PMS7003;42611;51.132;13.588;2024-01-11T01:28:02;74.2;58.2;
56360;PMS7003;42611;51.132;13.588;2024-01-11T01:33:01;75.9;59.3;
56360;PMS7003;42611;51.132;13.588;2024-01-11T01:38:01;77.4;60.0;
56360;PMS7003;42611;51.132;13.588;2024-01-11T01:43:06;73.6;58.8;
56360;PMS7003;42611;51.132;13.588;2024-01-11T01:48:02;81.5;63.9;
56360;PMS7003;42611;51.132;13.588;2024-01-11T01:53:01;81.3;64.0;
56360;PMS7003;42611;51.132;13.588;2024-01-11T01:58:01;82.1;64.1;
56360;PMS7003;42611;51.132;13.588;2024-01-11T02:03:01;82.2;65.1;
56360;PMS7003;42611;51.132;13.588;2024-01-11T02:08:01;80.1;63.4;
56360;PMS7003;42611;51.132;13.588;2024-01-11T02:13:02;79.0;61.8;
56360;PMS7003;42611;51.132;13.588;2024-01-11T02:18:02;79.1;61.4;
56360;PMS7003;42611;51.132;13.588;2024-01-11T02:23:03;77.9;61.8;
56360;PMS7003;42611;51.132;13.588;2024-01-11T02:28:01;76.4;61.0;
56360;PMS7003;42611;51.132;13.588;2024-01-11T02:33:04;79.0;62.0;
56360;PMS7003;42611;51.132;13.588;2024-01-11T02:38:02;77.7;60.9;
56360;PMS7003;42611;51.132;13.588;2024-01-11T02:43:07;76.5;59.5;
56360;PMS7003;42611;51.132;13.588;2024-01-11T02:48:02;78.3;60.7;
56360;PMS7003;42611;51.132;13.588;2024-01-11T02:53:01;77.5;60.1;
56360;PMS7003;42611;51.132;13.588;2024-01-11T02:58:01;78.3;61.1;
56360;PMS7003;42611;51.132;13.588;2024-01-11T03:03:02;80.0;63.1;
56360;PMS7003;42611;51.132;13.588;2024-01-11T03:08:01;79.3;63.2;
56360;PMS7003;42611;51.132;13.588;2024-01-11T03:13:02;76.4;60.4;
56360;PMS7003;42611;51.132;13.588;2024-01-11T03:18:02;76.5;60.2;
56360;PMS7003;42611;51.132;13.588;2024-01-11T03:24:01;75.8;59.4;
56360;PMS7003;42611;51.132;13.588;2024-01-11T03:29:01;74.4;57.7;
56360;PMS7003;42611;51.132;13.588;2024-01-11T03:34:01;74.5;58.3;
56360;PMS7003;42611;51.132;13.588;2024-01-11T03:39:01;74.1;57.6;
56360;PMS7003;42611;51.132;13.588;2024-01-11T03:44:01;73.4;56.6;
56360;PMS7003;42611;51.132;13.588;2024-01-11T03:49:02;71.9;55.8;
56360;PMS7003;42611;51.132;13.588;2024-01-11T03:59:01;65.3;50.7;
56360;PMS7003;42611;51.132;13.588;2024-01-11T04:04:01;59.5;46.7;
56360;PMS7003;42611;51.132;13.588;2024-01-11T04:09:01;62.6;48.7;
56360;PMS7003;42611;51.132;13.588;2024-01-11T04:14:01;62.9;49.3;
56360;PMS7003;42611;51.132;13.588;2024-01-11T04:19:02;64.4;49.8;
56360;PMS7003;42611;51.132;13.588;2024-01-11T04:24:02;71.3;55.8;
56360;PMS7003;42611;51.132;13.588;2024-01-11T04:29:02;77.6;60.7;
56360;PMS7003;42611;51.132;13.588;2024-01-11T04:34:01;73.8;58.8;
56360;PMS7003;42611;51.132;13.588;2024-01-11T04:39:01;75.0;59.2;
56360;PMS7003;42611;51.132;13.588;2024-01-11T04:44:01;72.9;56.8;
56360;PMS7003;42611;51.132;13.588;2024-01-11T04:49:01;66.3;51.2;
56360;PMS7003;42611;51.132;13.588;2024-01-11T04:54:01;66.9;52.0;
56360;PMS7003;42611;51.132;13.588;2024-01-11T04:59:01;68.1;53.3;
56360;PMS7003;42611;51.132;13.588;2024-01-11T05:04:01;69.4;54.2;
56360;PMS7003;42611;51.132;13.588;2024-01-11T05:09:01;73.0;56.0;
56360;PMS7003;42611;51.132;13.588;2024-01-11T05:14:02;82.2;63.1;
56360;PMS7003;42611;51.132;13.588;2024-01-11T05:19:01;84.7;64.0;
56360;PMS7003;42611;51.132;13.588;2024-01-11T05:24:02;89.8;66.9;
56360;PMS7003;42611;51.132;13.588;2024-01-11T05:29:01;89.3;66.7;
56360;PMS7003;42611;51.132;13.588;2024-01-11T05:34:03;88.4;67.8;
56360;PMS7003;42611;51.132;13.588;2024-01-11T05:39:01;85.2;65.6;
56360;PMS7003;42611;51.132;13.588;2024-01-11T05:44:02;82.8;64.6;
56360;PMS7003;42611;51.132;13.588;2024-01-11T05:49:01;78.5;62.1;
56360;PMS7003;42611;51.132;13.588;2024-01-11T05:54:01;75.5;60.1;
56360;PMS7003;42611;51.132;13.588;2024-01-11T05:59:01;75.2;59.5;
56360;PMS7003;42611;51.132;13.588;2024-01-11T06:04:01;77.7;61.4;
56360;PMS7003;42611;51.132;13.588;2024-01-11T06:14:01;78.8;61.1;
56360;PMS7003;42611;51.132;13.588;2024-01-11T06:19:02;79.8;62.2;
56360;PMS7003;42611;51.132;13.588;2024-01-11T06:24:01;75.6;60.1;
56360;PMS7003;42611;51.132;13.588;2024-01-11T06:29:01;73.2;58.1;
56360;PMS7003;42611;51.132;13.588;2024-01-11T06:34:02;72.6;57.7;
56360;PMS7003;42611;51.132;13.588;2024-01-11T06:39:01;69.8;55.8;
56360;PMS7003;42611;51.132;13.588;2024-01-11T06:44:03;70.8;55.1;
56360;PMS7003;42611;51.132;13.588;2024-01-11T06:49:03;74.0;57.2;
56360;PMS7003;42611;51.132;13.588;2024-01-11T06:54:01;76.5;59.2;
56360;PMS7003;42611;51.132;13.588;2024-01-11T06:59:01;78.9;61.5;
56360;PMS7003;42611;51.132;13.588;2024-01-11T07:04:01;83.4;64.8;
56360;PMS7003;42611;51.132;13.588;2024-01-11T07:09:02;84.9;66.4;
56360;PMS7003;42611;51.132;13.588;2024-01-11T07:14:01;85.8;67.1;
56360;PMS7003;42611;51.132;13.588;2024-01-11T07:19:02;83.8;65.4;
56360;PMS7003;42611;51.132;13.588;2024-01-11T07:24:01;82.0;64.4;
56360;PMS7003;42611;51.132;13.588;2024-01-11T07:29:02;79.0;62.4;
56360;PMS7003;42611;51.132;13.588;2024-01-11T07:34:01;78.1;61.9;
56360;PMS7003;42611;51.132;13.588;2024-01-11T07:39:01;76.5;60.7;
56360;PMS7003;42611;51.132;13.588;2024-01-11T07:44:01;77.1;61.6;
56360;PMS7003;42611;51.132;13.588;2024-01-11T07:49:03;80.1;63.3;
56360;PMS7003;42611;51.132;13.588;2024-01-11T07:54:02;82.9;64.6;
56360;PMS7003;42611;51.132;13.588;2024-01-11T08:04:01;85.7;66.8;
56360;PMS7003;42611;51.132;13.588;2024-01-11T08:09:02;89.0;68.7;
56360;PMS7003;42611;51.132;13.588;2024-01-11T08:14:01;90.1;69.0;
56360;PMS7003;42611;51.132;13.588;2024-01-11T08:19:03;89.5;68.9;
56360;PMS7003;42611;51.132;13.588;2024-01-11T08:24:05;94.1;72.1;
56360;PMS7003;42611;51.132;13.588;2024-01-11T08:29:02;98.3;75.2;
56360;PMS7003;42611;51.132;13.588;2024-01-11T08:34:03;100.2;76.3;
56360;PMS7003;42611;51.132;13.588;2024-01-11T08:39:02;101.3;78.3;
56360;PMS7003;42611;51.132;13.588;2024-01-11T08:44:02;105.7;82.2;
56360;PMS7003;42611;51.132;13.588;2024-01-11T08:49:02;107.0;83.2;
56360;PMS7003;42611;51.132;13.588;2024-01-11T08:54:02;106.5;84.0;
56360;PMS7003;42611;51.132;13.588;2024-01-11T08:59:03;107.9;86.3;
56360;PMS7003;42611;51.132;13.588;2024-01-11T09:04:01;110.0;87.2;
56360;PMS7003;42611;51.132;13.588;2024-01-11T09:09:01;111.0;87.4;
56360;PMS7003;42611;51.132;13.588;2024-01-11T09:14:01;113.8;92.3;
56360;PMS7003;42611;51.132;13.588;2024-01-11T09:19:01;127.6;105.4;
56360;PMS7003;42611;51.132;13.588;2024-01-11T09:24:01;119.4;99.0;
56360;PMS7003;42611;51.132;13.588;2024-01-11T09:29:01;119.0;101.4;
56360;PMS7003;42611;51.132;13.588;2024-01-11T09:34:01;122.1;106.0;
56360;PMS7003;42611;51.132;13.588;2024-01-11T09:39:01;119.4;102.1;
56360;PMS7003;42611;51.132;13.588;2024-01-11T09:44:01;107.6;90.5;
56360;PMS7003;42611;51.132;13.588;2024-01-11T09:49:03;113.9;94.7;
56360;PMS7003;42611;51.132;13.588;2024-01-11T09:54:01;113.6;93.9;
56360;PMS7003;42611;51.132;13.588;2024-01-11T09:59:01;109.6;90.8;
56360;PMS7003;42611;51.132;13.588;2024-01-11T10:09:01;98.9;82.4;
56360;PMS7003;42611;51.132;13.588;2024-01-11T10:14:01;100.6;85.4;
56360;PMS7003;42611;51.132;13.588;2024-01-11T10:19:02;98.6;82.8;
56360;PMS7003;42611;51.132;13.588;2024-01-11T10:24:01;98.2;81.7;
56360;PMS7003;42611;51.132;13.588;2024-01-11T10:29:01;95.9;79.3;
56360;PMS7003;42611;51.132;13.588;2024-01-11T10:34:02;105.2;89.0;
56360;PMS7003;42611;51.132;13.588;2024-01-11T10:39:01;104.6;88.7;
56360;PMS7003;42611;51.132;13.588;2024-01-11T10:44:03;106.6;89.2;
56360;PMS7003;42611;51.132;13.588;2024-01-11T10:49:01;106.7;88.8;
56360;PMS7003;42611;51.132;13.588;2024-01-11T10:54:03;105.6;87.0;
56360;PMS7003;42611;51.132;13.588;2024-01-11T10:59:01;103.8;84.4;
56360;PMS7003;42611;51.132;13.588;2024-01-11T11:04:02;103.0;82.7;
56360;PMS7003;42611;51.132;13.588;2024-01-11T11:09:01;101.5;82.5;
56360;PMS7003;42611;51.132;13.588;2024-01-11T11:14:03;101.4;82.6;
56360;PMS7003;42611;51.132;13.588;2024-01-11T11:19:02;102.0;83.2;
56360;PMS7003;42611;51.132;13.588;2024-01-11T11:29:03;100.2;80.3;
56360;PMS7003;42611;51.132;13.588;2024-01-11T11:34:06;99.2;79.1;
56360;PMS7003;42611;51.132;13.588;2024-01-11T11:39:02;97.6;77.6;
56360;PMS7003;42611;51.132;13.588;2024-01-11T11:44:02;98.1;78.3;
56360;PMS7003;42611;51.132;13.588;2024-01-11T11:49:01;96.6;76.6;
56360;PMS7003;42611;51.132;13.588;2024-01-11T11:54:01;96.7;77.1;
56360;PMS7003;42611;51.132;13.588;2024-01-11T11:59:01;95.2;75.7;
56360;PMS7003;42611;51.132;13.588;2024-01-11T12:04:01;88.4;69.2;
56360;PMS7003;42611;51.132;13.588;2024-01-11T12:09:01;86.9;67.3;
56360;PMS7003;42611;51.132;13.588;2024-01-11T12:14:01;87.6;68.7;
56360;PMS7003;42611;51.132;13.588;2024-01-11T12:19:01;86.8;68.4;
56360;PMS7003;42611;51.132;13.588;2024-01-11T12:24:01;85.2;67.0;
56360;PMS7003;42611;51.132;13.588;2024-01-11T12:29:01;90.3;71.5;
56360;PMS7003;42611;51.132;13.588;2024-01-11T12:34:01;89.9;71.4;
56360;PMS7003;42611;51.132;13.588;2024-01-11T12:39:02;88.4;68.6;
56360;PMS7003;42611;51.132;13.588;2024-01-11T12:44:01;87.8;68.7;
56360;PMS7003;42611;51.132;13.588;2024-01-11T12:49:01;83.5;65.0;
56360;PMS7003;42611;51.132;13.588;2024-01-11T12:54:01;83.7;65.2;
56360;PMS7003;42611;51.132;13.588;2024-01-11T12:59:05;83.0;65.5;
56360;PMS7003;42611;51.132;13.588;2024-01-11T13:05:01;83.2;66.5;
56360;PMS7003;42611;51.132;13.588;2024-01-11T13:10:01;82.8;65.0;
56360;PMS7003;42611;51.132;13.588;2024-01-11T13:15:01;88.3;69.1;
56360;PMS7003;42611;51.132;13.588;2024-01-11T13:20:02;87.7;68.0;
56360;PMS7003;42611;51.132;13.588;2024-01-11T13:25:01;86.6;66.1;
56360;PMS7003;42611;51.132;13.588;2024-01-11T13:30:02;80.8;61.3;
56360;PMS7003;42611;51.132;13.588;2024-01-11T13:35:01;80.4;61.8;
56360;PMS7003;42611;51.132;13.588;2024-01-11T13:40:01;80.6;62.4;
56360;PMS7003;42611;51.132;13.588;2024-01-11T13:45:02;80.8;62.8;
56360;PMS7003;42611;51.132;13.588;2024-01-11T13:50:01;81.9;63.5;
56360;PMS7003;42611;51.132;13.588;2024-01-11T13:55:01;87.7;67.4;
56360;PMS7003;42611;51.132;13.588;2024-01-11T14:00:05;88.5;67.1;
56360;PMS7003;42611;51.132;13.588;2024-01-11T14:05:01;88.3;66.6;
56360;PMS7003;42611;51.132;13.588;2024-01-11T14:10:01;87.0;66.3;
56360;PMS7003;42611;51.132;13.588;2024-01-11T14:15:03;85.4;64.8;
56360;PMS7003;42611;51.132;13.588;2024-01-11T14:20:02;83.8;64.0;
56360;PMS7003;42611;51.132;13.588;2024-01-11T14:25:01;82.5;63.7;
56360;PMS7003;42611;51.132;13.588;2024-01-11T14:30:02;81.0;62.5;
56360;PMS7003;42611;51.132;13.588;2024-01-11T14:35:01;80.4;61.7;
56360;PMS7003;42611;51.132;13.588;2024-01-11T14:40:02;80.8;62.2;
56360;PMS7003;42611;51.132;13.588;2024-01-11T14:46:01;80.5;62.2;
56360;PMS7003;42611;51.132;13.588;2024-01-11T14:51:01;79.9;61.6;
56360;PMS7003;42611;51.132;13.588;2024-01-11T14:56:01;79.6;61.3;
56360;PMS7003;42611;51.132;13.588;2024-01-11T15:01:01;79.4;61.0;
56360;PMS7003;42611;51.132;13.588;2024-01-11T15:06:02;79.2;60.7;
56360;PMS7003;42611;51.132;13.588;2024-01-11T15:11:01;79.9;60.7;
56360;PMS7003;42611;51.132;13.588;2024-01-11T15:16:02;81.5;61.5;
56360;PMS7003;42611;51.132;13.588;2024-01-11T15:21:01;81.6;62.0;
56360;PMS7003;42611;51.132;13.588;2024-01-11T15:26:01;83.2;63.3;
56360;PMS7003;42611;51.132;13.588;2024-01-11T15:31:03;82.9;63.7;
56360;PMS7003;42611;51.132;13.588;2024-01-11T15:36:02;83.7;64.4;
56360;PMS7003;42611;51.132;13.588;2024-01-11T15:41:01;84.4;64.6;
56360;PMS7003;42611;51.132;13.588;2024-01-11T15:46:01;85.7;64.9;
56360;PMS7003;42611;51.132;13.588;2024-01-11T15:51:07;86.6;65.8;
56360;PMS7003;42611;51.132;13.588;2024-01-11T15:56:01;88.3;66.2;
56360;PMS7003;42611;51.132;13.588;2024-01-11T16:01:01;87.0;65.1;
56360;PMS7003;42611;51.132;13.588;2024-01-11T16:06:02;83.3;62.9;
56360;PMS7003;42611;51.132;13.588;2024-01-11T16:11:01;81.4;62.2;
56360;PMS7003;42611;51.132;13.588;2024-01-11T16:16:01;81.3;61.7;
56360;PMS7003;42611;51.132;13.588;2024-01-11T16:21:01;79.8;61.2;
56360;PMS7003;42611;51.132;13.588;2024-01-11T16:26:01;80.4;61.7;
56360;PMS7003;42611;51.132;13.588;2024-01-11T16:31:02;83.0;63.6;
56360;PMS7003;42611;51.132;13.588;2024-01-11T16:36:02;83.8;63.9;
56360;PMS7003;42611;51.132;13.588;2024-01-11T16:41:01;82.1;63.3;
56360;PMS7003;42611;51.132;13.588;2024-01-11T16:51:02;74.1;57.1;
56360;PMS7003;42611;51.132;13.588;2024-01-11T16:56:02;74.8;58.0;
56360;PMS7003;42611;51.132;13.588;2024-01-11T17:01:01;75.6;59.2;
56360;PMS7003;42611;51.132;13.588;2024-01-11T17:06:01;74.9;58.0;
56360;PMS7003;42611;51.132;13.588;2024-01-11T17:11:01;76.2;58.4;
56360;PMS7003;42611;51.132;13.588;2024-01-11T17:16:02;81.0;63.2;
56360;PMS7003;42611;51.132;13.588;2024-01-11T17:21:03;78.8;61.0;
56360;PMS7003;42611;51.132;13.588;2024-01-11T17:26:02;77.1;59.6;
56360;PMS7003;42611;51.132;13.588;2024-01-11T17:31:02;77.7;59.8;
56360;PMS7003;42611;51.132;13.588;2024-01-11T17:36:02;75.3;59.0;
56360;PMS7003;42611;51.132;13.588;2024-01-11T17:41:01;76.9;59.8;
56360;PMS7003;42611;51.132;13.588;2024-01-11T17:46:02;75.9;59.6;
56360;PMS7003;42611;51.132;13.588;2024-01-11T17:51:02;75.4;59.7;
56360;PMS7003;42611;51.132;13.588;2024-01-11T17:56:02;73.4;58.6;
56360;PMS7003;42611;51.132;13.588;2024-01-11T18:01:01;72.8;58.2;
56360;PMS7003;42611;51.132;13.588;2024-01-11T18:06:02;74.2;58.0;
56360;PMS7003;42611;51.132;13.588;2024-01-11T18:11:01;76.5;59.5;
56360;PMS7003;42611;51.132;13.588;2024-01-11T18:16:04;78.0;59.9;
56360;PMS7003;42611;51.132;13.588;2024-01-11T18:21:02;79.6;60.4;
56360;PMS7003;42611;51.132;13.588;2024-01-11T18:26:01;78.6;59.0;
56360;PMS7003;42611;51.132;13.588;2024-01-11T18:31:03;76.5;59.1;
56360;PMS7003;42611;51.132;13.588;2024-01-11T18:36:02;76.1;58.7;
56360;PMS7003;42611;51.132;13.588;2024-01-11T18:41:03;75.4;58.2;
56360;PMS7003;42611;51.132;13.588;2024-01-11T18:46:01;76.3;59.2;
56360;PMS7003;42611;51.132;13.588;2024-01-11T18:51:02;78.9;60.7;
56360;PMS7003;42611;51.132;13.588;2024-01-11T18:56:01;79.1;60.4;
56360;PMS7003;42611;51.132;13.588;2024-01-11T19:01:01;77.3;59.6;
56360;PMS7003;42611;51.132;13.588;2024-01-11T19:06:02;74.2;57.7;
56360;PMS7003;42611;51.132;13.588;2024-01-11T19:11:01;73.3;57.0;
56360;PMS7003;42611;51.132;13.588;2024-01-11T19:16:01;69.6;55.2;
56360;PMS7003;42611;51.132;13.588;2024-01-11T19:26:01;66.3;52.0;
56360;PMS7003;42611;51.132;13.588;2024-01-11T19:31:01;61.3;47.6;
56360;PMS7003;42611;51.132;13.588;2024-01-11T19:36:01;53.0;42.2;
56360;PMS7003;42611;51.132;13.588;2024-01-11T19:41:01;52.9;41.7;
56360;PMS7003;42611;51.132;13.588;2024-01-11T19:46:01;49.1;39.9;
56360;PMS7003;42611;51.132;13.588;2024-01-11T19:51:09;47.4;39.2;
56360;PMS7003;42611;51.132;13.588;2024-01-11T19:57:01;48.9;41.2;
56360;PMS7003;42611;51.132;13.588;2024-01-11T20:02:03;52.2;43.4;
56360;PMS7003;42611;51.132;13.588;2024-01-11T20:07:02;49.5;42.5;
56360;PMS7003;42611;51.132;13.588;2024-01-11T20:12:01;47.5;39.9;
56360;PMS7003;42611;51.132;13.588;2024-01-11T20:17:01;46.8;39.1;
56360;PMS7003;42611;51.132;13.588;2024-01-11T20:22:01;47.2;39.5;
56360;PMS7003;42611;51.132;13.588;2024-01-11T20:32:01;48.7;39.5;
56360;PMS7003;42611;51.132;13.588;2024-01-11T20:37:01;51.4;41.8;
56360;PMS7003;42611;51.132;13.588;2024-01-11T20:42:01;50.6;41.8;
56360;PMS7003;42611;51.132;13.588;2024-01-11T20:47:01;51.2;41.7;
56360;PMS7003;42611;51.132;13.588;2024-01-11T20:52:01;49.8;41.0;
56360;PMS7003;42611;51.132;13.588;2024-01-11T20:57:01;48.5;40.0;
56360;PMS7003;42611;51.132;13.588;2024-01-11T21:02:06;48.0;39.7;
56360;PMS7003;42611;51.132;13.588;2024-01-11T21:07:02;48.7;39.8;
56360;PMS7003;42611;51.132;13.588;2024-01-11T21:12:02;49.3;40.2;
56360;PMS7003;42611;51.132;13.588;2024-01-11T21:17:01;52.2;40.9;
56360;PMS7003;42611;51.132;13.588;2024-01-11T21:22:01;52.8;41.0;
56360;PMS7003;42611;51.132;13.588;2024-01-11T21:27:02;53.8;41.4;
56360;PMS7003;42611;51.132;13.588;2024-01-11T21:32:01;54.4;41.7;
56360;PMS7003;42611;51.132;13.588;2024-01-11T21:37:01;53.9;41.6;
56360;PMS7003;42611;51.132;13.588;2024-01-11T21:42:01;53.8;42.6;
56360;PMS7003;42611;51.132;13.588;2024-01-11T21:47:01;53.7;43.3;
56360;PMS7003;42611;51.132;13.588;2024-01-11T21:52:01;53.6;43.0;
56360;PMS7003;42611;51.132;13.588;2024-01-11T21:57:02;52.8;42.7;
56360;PMS7003;42611;51.132;13.588;2024-01-11T22:02:01;52.5;43.0;
56360;PMS7003;42611;51.132;13.588;2024-01-11T22:07:02;47.6;38.5;
56360;PMS7003;42611;51.132;13.588;2024-01-11T22:12:02;46.3;37.9;
56360;PMS7003;42611;51.132;13.588;2024-01-11T22:17:01;46.8;38.3;
56360;PMS7003;42611;51.132;13.588;2024-01-11T22:22:01;45.2;37.7;
56360;PMS7003;42611;51.132;13.588;2024-01-11T22:27:01;46.0;37.6;
56360;PMS7003;42611;51.132;13.588;2024-01-11T22:32:01;48.1;40.9;
56360;PMS7003;42611;51.132;13.588;2024-01-11T22:37:01;48.8;40.9;
56360;PMS7003;42611;51.132;13.588;2024-01-11T22:42:05;47.1;40.4;
56360;PMS7003;42611;51.132;13.588;2024-01-11T22:47:01;46.6;40.4;
56360;PMS7003;42611;51.132;13.588;2024-01-11T22:52:01;43.6;38.5;
56360;PMS7003;42611;51.132;13.588;2024-01-11T22:57:01;42.7;37.4;
56360;PMS7003;42611;51.132;13.588;2024-01-11T23:02:01;41.5;36.7;
56360;PMS7003;42611;51.132;13.588;2024-01-11T23:07:01;42.6;36.8;
56360;PMS7003;42611;51.132;13.588;2024-01-11T23:12:08;44.3;37.2;
56360;PMS7003;42611;51.132;13.588;2024-01-11T23:17:01;43.2;36.4;
56360;PMS7003;42611;51.132;13.588;2024-01-11T23:22:01;42.5;35.6;
56360;PMS7003;42611;51.132;13.588;2024-01-11T23:27:01;41.8;35.0;
56360;PMS7003;42611;51.132;13.588;2024-01-11T23:32:01;41.0;34.6;
56360;PMS7003;42611;51.132;13.588;2024-01-11T23:37:01;38.0;32.9;
56360;PMS7003;42611;51.132;13.588;2024-01-11T23:42:01;39.0;34.2;
56360;PMS7003;42611;51.132;13.588;2024-01-11T23:47:01;39.8;35.2;
56360;PMS7003;42611;51.132;13.588;2024-01-11T23:52:02;42.2;36.4;
56360;PMS7003;42611;51.132;13.588;2024-01-11T23:57:01;41.3;36.3;
